sensor_id;sensor_type;location;lat;lon;timestamp;P1;durP1;ratioP1;P2;durP2;ratioP2
19207;SDS011;9737;59.466;18.036;2023-04-30T00:00:09;2.20;;;2.03;;
19207;SDS011;9737;59.466;18.036;2023-04-30T00:02:38;2.00;;;1.90;;
19207;SDS011;9737;59.466;18.036;2023-04-30T00:05:06;1.95;;;1.85;;
19207;SDS011;9737;59.466;18.036;2023-04-30T00:07:36;2.20;;;2.00;;
19207;SDS011;9737;59.466;18.036;2023-04-30T00:10:07;2.08;;;1.90;;
19207;SDS011;9737;59.466;18.036;2023-04-30T00:12:36;2.20;;;2.00;;
19207;SDS011;9737;59.466;18.036;2023-04-30T00:15:05;2.10;;;1.90;;
19207;SDS011;9737;59.466;18.036;2023-04-30T00:17:33;2.20;;;2.00;;
19207;SDS011;9737;59.466;18.036;2023-04-30T00:20:01;1.90;;;1.80;;
19207;SDS011;9737;59.466;18.036;2023-04-30T00:22:29;2.10;;;2.00;;
19207;SDS011;9737;59.466;18.036;2023-04-30T00:25:00;1.90;;;1.80;;
19207;SDS011;9737;59.466;18.036;2023-04-30T00:27:27;2.00;;;1.90;;
19207;SDS011;9737;59.466;18.036;2023-04-30T00:29:56;2.00;;;1.90;;
19207;SDS011;9737;59.466;18.036;2023-04-30T00:32:24;2.40;;;2.20;;
19207;SDS011;9737;59.466;18.036;2023-04-30T00:34:52;2.38;;;2.17;;
19207;SDS011;9737;59.466;18.036;2023-04-30T00:37:20;2.10;;;2.00;;
19207;SDS011;9737;59.466;18.036;2023-04-30T00:39:48;2.50;;;2.30;;
19207;SDS011;9737;59.466;18.036;2023-04-30T00:42:17;2.35;;;2.15;;
19207;SDS011;9737;59.466;18.036;2023-04-30T00:44:45;2.58;;;2.10;;
19207;SDS011;9737;59.466;18.036;2023-04-30T00:47:12;2.10;;;1.90;;
19207;SDS011;9737;59.466;18.036;2023-04-30T00:49:40;2.53;;;2.08;;
19207;SDS011;9737;59.466;18.036;2023-04-30T00:52:08;2.28;;;2.08;;
19207;SDS011;9737;59.466;18.036;2023-04-30T00:54:36;2.70;;;2.28;;
19207;SDS011;9737;59.466;18.036;2023-04-30T00:57:04;2.42;;;2.20;;
19207;SDS011;9737;59.466;18.036;2023-04-30T00:59:37;2.47;;;2.28;;
19207;SDS011;9737;59.466;18.036;2023-04-30T01:02:05;2.50;;;2.30;;
19207;SDS011;9737;59.466;18.036;2023-04-30T01:04:33;2.60;;;2.40;;
19207;SDS011;9737;59.466;18.036;2023-04-30T01:07:01;2.30;;;2.10;;
19207;SDS011;9737;59.466;18.036;2023-04-30T01:09:29;2.40;;;2.20;;
19207;SDS011;9737;59.466;18.036;2023-04-30T01:11:59;2.60;;;2.40;;
19207;SDS011;9737;59.466;18.036;2023-04-30T01:14:43;2.60;;;2.40;;
19207;SDS011;9737;59.466;18.036;2023-04-30T01:17:22;2.60;;;2.40;;
19207;SDS011;9737;59.466;18.036;2023-04-30T01:19:58;3.17;;;2.30;;
19207;SDS011;9737;59.466;18.036;2023-04-30T01:22:41;2.13;;;2.03;;
19207;SDS011;9737;59.466;18.036;2023-04-30T01:25:20;2.50;;;2.30;;
19207;SDS011;9737;59.466;18.036;2023-04-30T01:28:04;2.70;;;2.33;;
19207;SDS011;9737;59.466;18.036;2023-04-30T01:30:35;2.60;;;2.40;;
19207;SDS011;9737;59.466;18.036;2023-04-30T01:33:03;3.22;;;2.30;;
19207;SDS011;9737;59.466;18.036;2023-04-30T01:35:36;2.42;;;2.22;;
19207;SDS011;9737;59.466;18.036;2023-04-30T01:38:15;2.55;;;2.35;;
19207;SDS011;9737;59.466;18.036;2023-04-30T01:40:55;2.47;;;2.28;;
19207;SDS011;9737;59.466;18.036;2023-04-30T01:43:33;2.35;;;2.15;;
19207;SDS011;9737;59.466;18.036;2023-04-30T01:46:08;2.53;;;2.33;;
19207;SDS011;9737;59.466;18.036;2023-04-30T01:48:45;2.03;;;1.92;;
19207;SDS011;9737;59.466;18.036;2023-04-30T01:51:18;2.75;;;2.25;;
19207;SDS011;9737;59.466;18.036;2023-04-30T01:53:59;2.67;;;2.47;;
19207;SDS011;9737;59.466;18.036;2023-04-30T01:56:34;3.42;;;2.40;;
19207;SDS011;9737;59.466;18.036;2023-04-30T01:59:08;2.53;;;2.25;;
19207;SDS011;9737;59.466;18.036;2023-04-30T02:01:37;2.67;;;2.42;;
19207;SDS011;9737;59.466;18.036;2023-04-30T02:04:06;2.50;;;2.30;;
19207;SDS011;9737;59.466;18.036;2023-04-30T02:06:34;2.30;;;2.10;;
19207;SDS011;9737;59.466;18.036;2023-04-30T02:09:03;3.42;;;2.35;;
19207;SDS011;9737;59.466;18.036;2023-04-30T02:11:32;2.40;;;2.20;;
19207;SDS011;9737;59.466;18.036;2023-04-30T02:14:00;2.45;;;2.25;;
19207;SDS011;9737;59.466;18.036;2023-04-30T02:16:29;2.38;;;2.17;;
19207;SDS011;9737;59.466;18.036;2023-04-30T02:18:57;2.50;;;2.30;;
19207;SDS011;9737;59.466;18.036;2023-04-30T02:21:24;2.25;;;2.05;;
19207;SDS011;9737;59.466;18.036;2023-04-30T02:23:53;2.40;;;2.20;;
19207;SDS011;9737;59.466;18.036;2023-04-30T02:26:21;3.28;;;2.38;;
19207;SDS011;9737;59.466;18.036;2023-04-30T02:28:49;2.55;;;2.35;;
19207;SDS011;9737;59.466;18.036;2023-04-30T02:31:17;2.28;;;2.08;;
19207;SDS011;9737;59.466;18.036;2023-04-30T02:33:46;2.47;;;2.28;;
19207;SDS011;9737;59.466;18.036;2023-04-30T02:36:14;2.28;;;2.08;;
19207;SDS011;9737;59.466;18.036;2023-04-30T02:38:42;2.75;;;2.55;;
19207;SDS011;9737;59.466;18.036;2023-04-30T02:41:09;2.50;;;2.30;;
19207;SDS011;9737;59.466;18.036;2023-04-30T02:43:37;2.58;;;2.15;;
19207;SDS011;9737;59.466;18.036;2023-04-30T02:46:05;2.60;;;2.30;;
19207;SDS011;9737;59.466;18.036;2023-04-30T02:48:33;2.50;;;2.30;;
19207;SDS011;9737;59.466;18.036;2023-04-30T02:51:03;3.28;;;2.20;;
19207;SDS011;9737;59.466;18.036;2023-04-30T02:53:31;2.35;;;2.15;;
19207;SDS011;9737;59.466;18.036;2023-04-30T02:55:59;2.05;;;1.95;;
19207;SDS011;9737;59.466;18.036;2023-04-30T02:58:27;3.17;;;2.30;;
19207;SDS011;9737;59.466;18.036;2023-04-30T03:00:54;2.45;;;2.25;;
19207;SDS011;9737;59.466;18.036;2023-04-30T03:03:22;2.30;;;2.10;;
19207;SDS011;9737;59.466;18.036;2023-04-30T03:05:50;4.75;;;2.22;;
19207;SDS011;9737;59.466;18.036;2023-04-30T03:08:20;2.22;;;2.03;;
19207;SDS011;9737;59.466;18.036;2023-04-30T03:10:48;2.15;;;1.98;;
19207;SDS011;9737;59.466;18.036;2023-04-30T03:13:15;2.65;;;2.10;;
19207;SDS011;9737;59.466;18.036;2023-04-30T03:15:43;2.50;;;2.10;;
19207;SDS011;9737;59.466;18.036;2023-04-30T03:18:11;2.33;;;2.13;;
19207;SDS011;9737;59.466;18.036;2023-04-30T03:20:39;2.75;;;2.10;;
19207;SDS011;9737;59.466;18.036;2023-04-30T03:23:07;4.47;;;2.10;;
19207;SDS011;9737;59.466;18.036;2023-04-30T03:25:38;2.35;;;2.15;;
19207;SDS011;9737;59.466;18.036;2023-04-30T03:28:06;2.00;;;1.90;;
19207;SDS011;9737;59.466;18.036;2023-04-30T03:30:34;2.78;;;2.00;;
19207;SDS011;9737;59.466;18.036;2023-04-30T03:33:02;2.13;;;2.00;;
19207;SDS011;9737;59.466;18.036;2023-04-30T03:35:32;2.20;;;2.10;;
19207;SDS011;9737;59.466;18.036;2023-04-30T03:38:01;2.50;;;2.30;;
19207;SDS011;9737;59.466;18.036;2023-04-30T03:40:28;3.38;;;2.38;;
19207;SDS011;9737;59.466;18.036;2023-04-30T03:42:58;2.33;;;2.13;;
19207;SDS011;9737;59.466;18.036;2023-04-30T03:45:25;2.30;;;2.10;;
19207;SDS011;9737;59.466;18.036;2023-04-30T03:47:53;3.05;;;2.40;;
19207;SDS011;9737;59.466;18.036;2023-04-30T03:50:21;2.72;;;2.28;;
19207;SDS011;9737;59.466;18.036;2023-04-30T03:52:49;3.40;;;2.30;;
19207;SDS011;9737;59.466;18.036;2023-04-30T03:55:17;2.42;;;2.22;;
19207;SDS011;9737;59.466;18.036;2023-04-30T03:57:45;2.42;;;2.22;;
19207;SDS011;9737;59.466;18.036;2023-04-30T04:00:15;2.40;;;2.20;;
19207;SDS011;9737;59.466;18.036;2023-04-30T04:02:43;3.88;;;2.20;;
19207;SDS011;9737;59.466;18.036;2023-04-30T04:05:11;2.50;;;2.30;;
19207;SDS011;9737;59.466;18.036;2023-04-30T04:07:39;2.50;;;2.30;;
19207;SDS011;9737;59.466;18.036;2023-04-30T04:10:07;5.30;;;2.30;;
19207;SDS011;9737;59.466;18.036;2023-04-30T04:12:35;2.65;;;2.30;;
19207;SDS011;9737;59.466;18.036;2023-04-30T04:15:04;2.45;;;2.25;;
19207;SDS011;9737;59.466;18.036;2023-04-30T04:17:34;2.53;;;2.33;;
19207;SDS011;9737;59.466;18.036;2023-04-30T04:20:02;2.47;;;2.28;;
19207;SDS011;9737;59.466;18.036;2023-04-30T04:22:31;2.50;;;2.30;;
19207;SDS011;9737;59.466;18.036;2023-04-30T04:24:59;2.60;;;2.20;;
19207;SDS011;9737;59.466;18.036;2023-04-30T04:27:27;3.13;;;2.40;;
19207;SDS011;9737;59.466;18.036;2023-04-30T04:29:55;2.38;;;2.17;;
19207;SDS011;9737;59.466;18.036;2023-04-30T04:32:23;2.63;;;2.30;;
19207;SDS011;9737;59.466;18.036;2023-04-30T04:34:52;3.17;;;2.35;;
19207;SDS011;9737;59.466;18.036;2023-04-30T04:37:20;3.90;;;2.58;;
19207;SDS011;9737;59.466;18.036;2023-04-30T04:39:48;2.40;;;2.20;;
19207;SDS011;9737;59.466;18.036;2023-04-30T04:42:16;3.35;;;2.35;;
19207;SDS011;9737;59.466;18.036;2023-04-30T04:44:45;2.40;;;2.20;;
19207;SDS011;9737;59.466;18.036;2023-04-30T04:47:13;4.05;;;2.50;;
19207;SDS011;9737;59.466;18.036;2023-04-30T04:49:42;2.50;;;2.30;;
19207;SDS011;9737;59.466;18.036;2023-04-30T04:52:11;2.38;;;2.17;;
19207;SDS011;9737;59.466;18.036;2023-04-30T04:54:39;2.50;;;2.30;;
19207;SDS011;9737;59.466;18.036;2023-04-30T04:57:07;2.58;;;2.30;;
19207;SDS011;9737;59.466;18.036;2023-04-30T04:59:35;2.40;;;2.20;;
19207;SDS011;9737;59.466;18.036;2023-04-30T05:02:03;2.40;;;2.20;;
19207;SDS011;9737;59.466;18.036;2023-04-30T05:04:31;2.25;;;2.05;;
19207;SDS011;9737;59.466;18.036;2023-04-30T05:06:58;2.47;;;2.13;;
19207;SDS011;9737;59.466;18.036;2023-04-30T05:09:28;2.60;;;2.10;;
19207;SDS011;9737;59.466;18.036;2023-04-30T05:11:56;2.28;;;2.08;;
19207;SDS011;9737;59.466;18.036;2023-04-30T05:14:24;4.15;;;2.10;;
19207;SDS011;9737;59.466;18.036;2023-04-30T05:16:52;3.45;;;1.92;;
19207;SDS011;9737;59.466;18.036;2023-04-30T05:19:19;2.63;;;2.30;;
19207;SDS011;9737;59.466;18.036;2023-04-30T05:21:47;2.20;;;2.00;;
19207;SDS011;9737;59.466;18.036;2023-04-30T05:24:15;2.30;;;2.10;;
19207;SDS011;9737;59.466;18.036;2023-04-30T05:26:44;2.97;;;2.10;;
19207;SDS011;9737;59.466;18.036;2023-04-30T05:29:12;3.78;;;1.90;;
19207;SDS011;9737;59.466;18.036;2023-04-30T05:31:40;2.33;;;2.10;;
19207;SDS011;9737;59.466;18.036;2023-04-30T05:34:09;2.28;;;2.08;;
19207;SDS011;9737;59.466;18.036;2023-04-30T05:36:36;2.47;;;2.22;;
19207;SDS011;9737;59.466;18.036;2023-04-30T05:39:04;3.17;;;2.38;;
19207;SDS011;9737;59.466;18.036;2023-04-30T05:41:32;2.50;;;1.90;;
19207;SDS011;9737;59.466;18.036;2023-04-30T05:44:01;2.22;;;2.00;;
19207;SDS011;9737;59.466;18.036;2023-04-30T05:46:30;2.15;;;1.98;;
19207;SDS011;9737;59.466;18.036;2023-04-30T05:48:58;2.40;;;2.20;;
19207;SDS011;9737;59.466;18.036;2023-04-30T05:51:26;3.70;;;2.40;;
19207;SDS011;9737;59.466;18.036;2023-04-30T05:53:54;2.10;;;1.95;;
19207;SDS011;9737;59.466;18.036;2023-04-30T05:56:23;3.53;;;2.30;;
19207;SDS011;9737;59.466;18.036;2023-04-30T05:58:51;1.90;;;1.80;;
19207;SDS011;9737;59.466;18.036;2023-04-30T06:01:20;2.20;;;2.00;;
19207;SDS011;9737;59.466;18.036;2023-04-30T06:03:49;3.97;;;2.20;;
19207;SDS011;9737;59.466;18.036;2023-04-30T06:06:17;2.28;;;2.08;;
19207;SDS011;9737;59.466;18.036;2023-04-30T06:08:45;3.13;;;2.28;;
19207;SDS011;9737;59.466;18.036;2023-04-30T06:11:14;3.45;;;2.08;;
19207;SDS011;9737;59.466;18.036;2023-04-30T06:13:42;2.20;;;2.00;;
19207;SDS011;9737;59.466;18.036;2023-04-30T06:16:09;2.50;;;2.15;;
19207;SDS011;9737;59.466;18.036;2023-04-30T06:18:39;2.47;;;1.95;;
19207;SDS011;9737;59.466;18.036;2023-04-30T06:21:06;3.03;;;2.00;;
19207;SDS011;9737;59.466;18.036;2023-04-30T06:23:34;3.47;;;2.28;;
19207;SDS011;9737;59.466;18.036;2023-04-30T06:26:03;1.85;;;1.75;;
19207;SDS011;9737;59.466;18.036;2023-04-30T06:28:31;1.88;;;1.77;;
19207;SDS011;9737;59.466;18.036;2023-04-30T06:30:59;3.83;;;1.90;;
19207;SDS011;9737;59.466;18.036;2023-04-30T06:33:27;2.22;;;1.73;;
19207;SDS011;9737;59.466;18.036;2023-04-30T06:35:56;1.80;;;1.70;;
19207;SDS011;9737;59.466;18.036;2023-04-30T06:38:24;2.72;;;1.65;;
19207;SDS011;9737;59.466;18.036;2023-04-30T06:40:52;1.70;;;1.60;;
19207;SDS011;9737;59.466;18.036;2023-04-30T06:43:20;2.13;;;1.80;;
19207;SDS011;9737;59.466;18.036;2023-04-30T06:45:48;1.73;;;1.63;;
19207;SDS011;9737;59.466;18.036;2023-04-30T06:48:16;2.17;;;1.90;;
19207;SDS011;9737;59.466;18.036;2023-04-30T06:50:44;1.73;;;1.60;;
19207;SDS011;9737;59.466;18.036;2023-04-30T06:53:13;3.53;;;1.80;;
19207;SDS011;9737;59.466;18.036;2023-04-30T06:55:43;1.85;;;1.60;;
19207;SDS011;9737;59.466;18.036;2023-04-30T06:58:12;2.83;;;2.13;;
19207;SDS011;9737;59.466;18.036;2023-04-30T07:00:39;2.13;;;1.92;;
19207;SDS011;9737;59.466;18.036;2023-04-30T07:03:09;1.70;;;1.60;;
19207;SDS011;9737;59.466;18.036;2023-04-30T07:05:37;2.10;;;1.90;;
19207;SDS011;9737;59.466;18.036;2023-04-30T07:08:05;4.43;;;1.75;;
19207;SDS011;9737;59.466;18.036;2023-04-30T07:10:35;2.28;;;2.08;;
19207;SDS011;9737;59.466;18.036;2023-04-30T07:13:02;2.47;;;1.90;;
19207;SDS011;9737;59.466;18.036;2023-04-30T07:15:31;2.53;;;2.08;;
19207;SDS011;9737;59.466;18.036;2023-04-30T07:17:59;2.10;;;1.90;;
19207;SDS011;9737;59.466;18.036;2023-04-30T07:20:29;2.78;;;1.90;;
19207;SDS011;9737;59.466;18.036;2023-04-30T07:22:57;3.40;;;2.10;;
19207;SDS011;9737;59.466;18.036;2023-04-30T07:25:25;2.00;;;1.80;;
19207;SDS011;9737;59.466;18.036;2023-04-30T07:27:54;1.88;;;1.77;;
19207;SDS011;9737;59.466;18.036;2023-04-30T07:30:22;4.10;;;1.90;;
19207;SDS011;9737;59.466;18.036;2023-04-30T07:32:50;2.75;;;1.83;;
19207;SDS011;9737;59.466;18.036;2023-04-30T07:35:18;3.63;;;1.95;;
19207;SDS011;9737;59.466;18.036;2023-04-30T07:37:46;2.03;;;1.80;;
19207;SDS011;9737;59.466;18.036;2023-04-30T07:40:14;1.80;;;1.70;;
19207;SDS011;9737;59.466;18.036;2023-04-30T07:43:01;3.58;;;1.95;;
19207;SDS011;9737;59.466;18.036;2023-04-30T07:45:29;2.00;;;1.80;;
19207;SDS011;9737;59.466;18.036;2023-04-30T07:47:59;1.92;;;1.65;;
19207;SDS011;9737;59.466;18.036;2023-04-30T07:50:28;3.20;;;2.03;;
19207;SDS011;9737;59.466;18.036;2023-04-30T07:52:59;2.90;;;1.70;;
19207;SDS011;9737;59.466;18.036;2023-04-30T07:55:28;2.55;;;1.80;;
19207;SDS011;9737;59.466;18.036;2023-04-30T07:57:56;2.13;;;1.73;;
19207;SDS011;9737;59.466;18.036;2023-04-30T08:00:26;3.70;;;1.85;;
19207;SDS011;9737;59.466;18.036;2023-04-30T08:02:55;3.55;;;1.60;;
19207;SDS011;9737;59.466;18.036;2023-04-30T08:05:22;1.67;;;1.58;;
19207;SDS011;9737;59.466;18.036;2023-04-30T08:07:50;1.98;;;1.60;;
19207;SDS011;9737;59.466;18.036;2023-04-30T08:10:18;6.68;;;1.73;;
19207;SDS011;9737;59.466;18.036;2023-04-30T08:12:46;2.45;;;1.70;;
19207;SDS011;9737;59.466;18.036;2023-04-30T08:15:14;2.13;;;1.60;;
19207;SDS011;9737;59.466;18.036;2023-04-30T08:17:43;3.45;;;1.42;;
19207;SDS011;9737;59.466;18.036;2023-04-30T08:20:11;3.47;;;1.35;;
19207;SDS011;9737;59.466;18.036;2023-04-30T08:22:39;5.35;;;1.50;;
19207;SDS011;9737;59.466;18.036;2023-04-30T08:25:09;1.75;;;1.60;;
19207;SDS011;9737;59.466;18.036;2023-04-30T08:27:37;1.80;;;1.55;;
19207;SDS011;9737;59.466;18.036;2023-04-30T08:30:06;2.08;;;1.70;;
19207;SDS011;9737;59.466;18.036;2023-04-30T08:32:34;4.13;;;2.10;;
19207;SDS011;9737;59.466;18.036;2023-04-30T08:35:04;5.90;;;1.80;;
19207;SDS011;9737;59.466;18.036;2023-04-30T08:37:33;1.75;;;1.60;;
19207;SDS011;9737;59.466;18.036;2023-04-30T08:40:00;3.17;;;1.60;;
19207;SDS011;9737;59.466;18.036;2023-04-30T08:42:29;3.13;;;1.73;;
19207;SDS011;9737;59.466;18.036;2023-04-30T08:44:58;10.55;;;1.80;;
19207;SDS011;9737;59.466;18.036;2023-04-30T08:47:27;1.70;;;1.60;;
19207;SDS011;9737;59.466;18.036;2023-04-30T08:49:55;2.22;;;1.45;;
19207;SDS011;9737;59.466;18.036;2023-04-30T08:52:25;1.50;;;1.40;;
19207;SDS011;9737;59.466;18.036;2023-04-30T08:54:55;1.50;;;1.40;;
19207;SDS011;9737;59.466;18.036;2023-04-30T08:57:25;2.55;;;1.30;;
19207;SDS011;9737;59.466;18.036;2023-04-30T08:59:53;3.63;;;1.30;;
19207;SDS011;9737;59.466;18.036;2023-04-30T09:02:21;2.50;;;1.33;;
19207;SDS011;9737;59.466;18.036;2023-04-30T09:04:49;1.40;;;1.30;;
19207;SDS011;9737;59.466;18.036;2023-04-30T09:07:17;4.00;;;1.63;;
19207;SDS011;9737;59.466;18.036;2023-04-30T09:09:50;1.88;;;1.23;;
19207;SDS011;9737;59.466;18.036;2023-04-30T09:12:20;1.73;;;1.30;;
19207;SDS011;9737;59.466;18.036;2023-04-30T09:14:57;1.60;;;1.50;;
19207;SDS011;9737;59.466;18.036;2023-04-30T09:17:29;1.63;;;1.52;;
19207;SDS011;9737;59.466;18.036;2023-04-30T09:20:05;2.50;;;1.60;;
19207;SDS011;9737;59.466;18.036;2023-04-30T09:22:34;3.72;;;1.50;;
19207;SDS011;9737;59.466;18.036;2023-04-30T09:25:05;3.38;;;1.60;;
19207;SDS011;9737;59.466;18.036;2023-04-30T09:27:34;1.73;;;1.60;;
19207;SDS011;9737;59.466;18.036;2023-04-30T09:30:02;7.78;;;1.52;;
19207;SDS011;9737;59.466;18.036;2023-04-30T09:32:31;3.75;;;1.50;;
19207;SDS011;9737;59.466;18.036;2023-04-30T09:34:59;1.75;;;1.33;;
19207;SDS011;9737;59.466;18.036;2023-04-30T09:37:34;1.30;;;1.20;;
19207;SDS011;9737;59.466;18.036;2023-04-30T09:40:03;1.85;;;1.17;;
19207;SDS011;9737;59.466;18.036;2023-04-30T09:42:33;4.22;;;1.40;;
19207;SDS011;9737;59.466;18.036;2023-04-30T09:45:01;2.85;;;1.40;;
19207;SDS011;9737;59.466;18.036;2023-04-30T09:47:32;2.60;;;1.48;;
19207;SDS011;9737;59.466;18.036;2023-04-30T09:49:59;4.07;;;1.40;;
19207;SDS011;9737;59.466;18.036;2023-04-30T09:52:27;5.25;;;1.63;;
19207;SDS011;9737;59.466;18.036;2023-04-30T09:54:55;1.67;;;1.20;;
19207;SDS011;9737;59.466;18.036;2023-04-30T09:57:25;1.75;;;1.50;;
19207;SDS011;9737;59.466;18.036;2023-04-30T09:59:55;2.65;;;1.25;;
19207;SDS011;9737;59.466;18.036;2023-04-30T10:02:24;1.38;;;1.25;;
19207;SDS011;9737;59.466;18.036;2023-04-30T10:04:54;2.75;;;1.30;;
19207;SDS011;9737;59.466;18.036;2023-04-30T10:07:24;1.52;;;1.30;;
19207;SDS011;9737;59.466;18.036;2023-04-30T10:10:02;2.53;;;1.33;;
19207;SDS011;9737;59.466;18.036;2023-04-30T10:12:38;1.75;;;1.30;;
19207;SDS011;9737;59.466;18.036;2023-04-30T10:15:12;2.95;;;1.50;;
19207;SDS011;9737;59.466;18.036;2023-04-30T10:17:44;1.83;;;1.40;;
19207;SDS011;9737;59.466;18.036;2023-04-30T10:20:16;1.50;;;1.40;;
19207;SDS011;9737;59.466;18.036;2023-04-30T10:22:47;1.90;;;1.40;;
19207;SDS011;9737;59.466;18.036;2023-04-30T10:25:17;4.38;;;1.50;;
19207;SDS011;9737;59.466;18.036;2023-04-30T10:27:47;2.88;;;1.20;;
19207;SDS011;9737;59.466;18.036;2023-04-30T10:30:15;1.65;;;1.20;;
19207;SDS011;9737;59.466;18.036;2023-04-30T10:32:45;1.42;;;1.13;;
19207;SDS011;9737;59.466;18.036;2023-04-30T10:35:18;1.13;;;1.00;;
19207;SDS011;9737;59.466;18.036;2023-04-30T10:37:52;0.90;;;0.90;;
19207;SDS011;9737;59.466;18.036;2023-04-30T10:40:25;4.00;;;1.00;;
19207;SDS011;9737;59.466;18.036;2023-04-30T10:42:54;1.33;;;1.20;;
19207;SDS011;9737;59.466;18.036;2023-04-30T10:45:33;1.50;;;1.00;;
19207;SDS011;9737;59.466;18.036;2023-04-30T10:48:03;1.60;;;1.20;;
19207;SDS011;9737;59.466;18.036;2023-04-30T10:50:31;1.67;;;1.05;;
19207;SDS011;9737;59.466;18.036;2023-04-30T10:53:02;1.88;;;1.00;;
19207;SDS011;9737;59.466;18.036;2023-04-30T10:55:30;1.08;;;1.00;;
19207;SDS011;9737;59.466;18.036;2023-04-30T10:58:00;1.73;;;1.23;;
19207;SDS011;9737;59.466;18.036;2023-04-30T11:00:28;2.45;;;1.10;;
19207;SDS011;9737;59.466;18.036;2023-04-30T11:02:57;1.08;;;0.90;;
19207;SDS011;9737;59.466;18.036;2023-04-30T11:05:33;1.10;;;1.00;;
19207;SDS011;9737;59.466;18.036;2023-04-30T11:08:04;2.03;;;1.08;;
19207;SDS011;9737;59.466;18.036;2023-04-30T11:10:33;2.63;;;1.10;;
19207;SDS011;9737;59.466;18.036;2023-04-30T11:13:03;1.35;;;0.90;;
19207;SDS011;9737;59.466;18.036;2023-04-30T11:15:33;0.90;;;0.90;;
19207;SDS011;9737;59.466;18.036;2023-04-30T11:18:06;3.75;;;1.45;;
19207;SDS011;9737;59.466;18.036;2023-04-30T11:20:38;2.25;;;1.20;;
19207;SDS011;9737;59.466;18.036;2023-04-30T11:23:07;5.22;;;1.40;;
19207;SDS011;9737;59.466;18.036;2023-04-30T11:25:39;1.52;;;1.17;;
19207;SDS011;9737;59.466;18.036;2023-04-30T11:28:10;1.63;;;1.17;;
19207;SDS011;9737;59.466;18.036;2023-04-30T11:30:49;1.40;;;1.20;;
19207;SDS011;9737;59.466;18.036;2023-04-30T11:33:18;1.75;;;1.25;;
19207;SDS011;9737;59.466;18.036;2023-04-30T11:35:47;2.58;;;1.23;;
19207;SDS011;9737;59.466;18.036;2023-04-30T11:38:18;1.98;;;1.20;;
19207;SDS011;9737;59.466;18.036;2023-04-30T11:40:47;6.00;;;1.00;;
19207;SDS011;9737;59.466;18.036;2023-04-30T11:43:23;1.20;;;1.10;;
19207;SDS011;9737;59.466;18.036;2023-04-30T11:45:59;4.63;;;0.90;;
19207;SDS011;9737;59.466;18.036;2023-04-30T11:48:31;3.80;;;1.00;;
19207;SDS011;9737;59.466;18.036;2023-04-30T11:51:04;2.90;;;1.00;;
19207;SDS011;9737;59.466;18.036;2023-04-30T11:53:32;1.98;;;0.90;;
19207;SDS011;9737;59.466;18.036;2023-04-30T11:56:01;1.05;;;0.70;;
19207;SDS011;9737;59.466;18.036;2023-04-30T11:58:35;1.00;;;0.90;;
19207;SDS011;9737;59.466;18.036;2023-04-30T12:01:04;1.95;;;0.93;;
19207;SDS011;9737;59.466;18.036;2023-04-30T12:03:39;1.58;;;0.80;;
19207;SDS011;9737;59.466;18.036;2023-04-30T12:06:09;2.08;;;0.93;;
19207;SDS011;9737;59.466;18.036;2023-04-30T12:08:40;1.52;;;0.80;;
19207;SDS011;9737;59.466;18.036;2023-04-30T12:11:18;1.85;;;0.90;;
19207;SDS011;9737;59.466;18.036;2023-04-30T12:13:52;0.80;;;0.80;;
19207;SDS011;9737;59.466;18.036;2023-04-30T12:16:21;0.82;;;0.82;;
19207;SDS011;9737;59.466;18.036;2023-04-30T12:18:50;1.73;;;1.10;;
19207;SDS011;9737;59.466;18.036;2023-04-30T12:21:19;1.67;;;1.02;;
19207;SDS011;9737;59.466;18.036;2023-04-30T12:23:48;1.98;;;1.40;;
19207;SDS011;9737;59.466;18.036;2023-04-30T12:26:16;1.92;;;1.17;;
19207;SDS011;9737;59.466;18.036;2023-04-30T12:28:45;1.85;;;1.20;;
19207;SDS011;9737;59.466;18.036;2023-04-30T12:31:17;1.20;;;1.10;;
19207;SDS011;9737;59.466;18.036;2023-04-30T12:33:52;1.50;;;1.30;;
19207;SDS011;9737;59.466;18.036;2023-04-30T12:36:22;1.27;;;1.15;;
19207;SDS011;9737;59.466;18.036;2023-04-30T12:39:00;1.30;;;1.20;;
19207;SDS011;9737;59.466;18.036;2023-04-30T12:41:39;1.40;;;1.30;;
19207;SDS011;9737;59.466;18.036;2023-04-30T12:44:17;1.00;;;1.00;;
19207;SDS011;9737;59.466;18.036;2023-04-30T12:46:48;1.60;;;1.20;;
19207;SDS011;9737;59.466;18.036;2023-04-30T12:49:22;1.75;;;1.10;;
19207;SDS011;9737;59.466;18.036;2023-04-30T12:51:51;1.45;;;1.35;;
19207;SDS011;9737;59.466;18.036;2023-04-30T12:54:23;1.75;;;1.15;;
19207;SDS011;9737;59.466;18.036;2023-04-30T12:56:56;1.15;;;1.10;;
19207;SDS011;9737;59.466;18.036;2023-04-30T12:59:25;1.65;;;1.30;;
19207;SDS011;9737;59.466;18.036;2023-04-30T13:01:54;1.10;;;1.00;;
19207;SDS011;9737;59.466;18.036;2023-04-30T13:04:31;1.35;;;1.20;;
19207;SDS011;9737;59.466;18.036;2023-04-30T13:06:59;1.30;;;1.20;;
19207;SDS011;9737;59.466;18.036;2023-04-30T13:09:27;1.20;;;1.10;;
19207;SDS011;9737;59.466;18.036;2023-04-30T13:11:55;1.08;;;1.00;;
19207;SDS011;9737;59.466;18.036;2023-04-30T13:14:23;1.15;;;1.05;;
19207;SDS011;9737;59.466;18.036;2023-04-30T13:16:51;1.27;;;1.17;;
19207;SDS011;9737;59.466;18.036;2023-04-30T13:19:21;1.10;;;1.00;;
19207;SDS011;9737;59.466;18.036;2023-04-30T13:21:49;1.48;;;1.10;;
19207;SDS011;9737;59.466;18.036;2023-04-30T13:24:17;1.08;;;0.95;;
19207;SDS011;9737;59.466;18.036;2023-04-30T13:26:45;3.60;;;1.10;;
19207;SDS011;9737;59.466;18.036;2023-04-30T13:29:13;1.10;;;0.95;;
19207;SDS011;9737;59.466;18.036;2023-04-30T13:31:41;0.93;;;0.80;;
19207;SDS011;9737;59.466;18.036;2023-04-30T13:34:09;1.48;;;0.80;;
19207;SDS011;9737;59.466;18.036;2023-04-30T13:36:38;1.00;;;0.90;;
19207;SDS011;9737;59.466;18.036;2023-04-30T13:39:06;1.38;;;0.88;;
19207;SDS011;9737;59.466;18.036;2023-04-30T13:41:34;0.93;;;0.80;;
19207;SDS011;9737;59.466;18.036;2023-04-30T13:44:02;0.80;;;0.80;;
19207;SDS011;9737;59.466;18.036;2023-04-30T13:46:29;0.70;;;0.70;;
19207;SDS011;9737;59.466;18.036;2023-04-30T13:48:57;0.63;;;0.63;;
19207;SDS011;9737;59.466;18.036;2023-04-30T13:51:25;0.70;;;0.70;;
19207;SDS011;9737;59.466;18.036;2023-04-30T13:53:55;1.20;;;0.88;;
19207;SDS011;9737;59.466;18.036;2023-04-30T13:56:23;1.40;;;1.00;;
19207;SDS011;9737;59.466;18.036;2023-04-30T13:58:51;0.70;;;0.70;;
19207;SDS011;9737;59.466;18.036;2023-04-30T14:01:19;0.70;;;0.70;;
19207;SDS011;9737;59.466;18.036;2023-04-30T14:03:47;0.70;;;0.70;;
19207;SDS011;9737;59.466;18.036;2023-04-30T14:06:15;1.05;;;1.00;;
19207;SDS011;9737;59.466;18.036;2023-04-30T14:08:43;2.33;;;1.00;;
19207;SDS011;9737;59.466;18.036;2023-04-30T14:11:13;1.05;;;0.88;;
19207;SDS011;9737;59.466;18.036;2023-04-30T14:13:41;3.22;;;0.88;;
19207;SDS011;9737;59.466;18.036;2023-04-30T14:16:08;2.83;;;0.80;;
19207;SDS011;9737;59.466;18.036;2023-04-30T14:18:36;1.00;;;0.80;;
19207;SDS011;9737;59.466;18.036;2023-04-30T14:21:04;1.23;;;0.80;;
19207;SDS011;9737;59.466;18.036;2023-04-30T14:23:33;0.80;;;0.80;;
19207;SDS011;9737;59.466;18.036;2023-04-30T14:26:00;0.70;;;0.70;;
19207;SDS011;9737;59.466;18.036;2023-04-30T14:28:30;1.48;;;0.70;;
19207;SDS011;9737;59.466;18.036;2023-04-30T14:30:58;0.82;;;0.82;;
19207;SDS011;9737;59.466;18.036;2023-04-30T14:33:26;6.20;;;0.82;;
19207;SDS011;9737;59.466;18.036;2023-04-30T14:35:54;2.53;;;0.82;;
19207;SDS011;9737;59.466;18.036;2023-04-30T14:38:22;2.80;;;0.82;;
19207;SDS011;9737;59.466;18.036;2023-04-30T14:40:50;0.70;;;0.70;;
19207;SDS011;9737;59.466;18.036;2023-04-30T14:43:18;0.63;;;0.63;;
19207;SDS011;9737;59.466;18.036;2023-04-30T14:45:47;0.70;;;0.70;;
19207;SDS011;9737;59.466;18.036;2023-04-30T14:48:15;0.70;;;0.70;;
19207;SDS011;9737;59.466;18.036;2023-04-30T14:50:43;0.80;;;0.70;;
19207;SDS011;9737;59.466;18.036;2023-04-30T14:53:11;0.73;;;0.70;;
19207;SDS011;9737;59.466;18.036;2023-04-30T14:55:39;1.42;;;0.80;;
19207;SDS011;9737;59.466;18.036;2023-04-30T14:58:10;0.80;;;0.80;;
19207;SDS011;9737;59.466;18.036;2023-04-30T15:00:41;0.95;;;0.82;;